createdAt,value
2018-05-11T00:00:56.619Z,6.77
2018-05-11T00:03:24.944Z,6.80
2018-05-11T00:05:53.078Z,6.77
2018-05-11T00:08:21.215Z,6.47
2018-05-11T00:10:49.519Z,7.00
2018-05-11T00:13:17.624Z,6.93
2018-05-11T00:15:45.731Z,7.30
2018-05-11T00:18:13.855Z,7.20
2018-05-11T00:20:41.994Z,6.87
2018-05-11T00:23:10.117Z,7.20
2018-05-11T00:25:38.242Z,7.07
2018-05-11T00:28:06.374Z,7.40
2018-05-11T00:30:34.508Z,7.50
2018-05-11T00:33:02.629Z,6.57
2018-05-11T00:35:30.767Z,6.20
2018-05-11T00:37:58.939Z,7.07
2018-05-11T00:40:27.311Z,6.63
2018-05-11T00:42:55.502Z,7.10
2018-05-11T00:45:23.647Z,8.10
2018-05-11T00:47:51.766Z,8.13
2018-05-11T00:50:19.892Z,6.80
2018-05-11T00:52:47.994Z,7.27
2018-05-11T00:55:28.006Z,7.23
2018-05-11T00:57:56.110Z,6.90
2018-05-11T01:00:24.215Z,7.73
2018-05-11T01:02:52.371Z,7.07
2018-05-11T01:05:20.489Z,7.10
2018-05-11T01:07:48.608Z,7.60
2018-05-11T01:10:16.750Z,7.50
2018-05-11T01:12:44.873Z,7.60
2018-05-11T01:15:12.994Z,7.20
2018-05-11T01:17:41.102Z,7.20
2018-05-11T01:20:09.254Z,7.03
2018-05-11T01:22:37.379Z,7.70
2018-05-11T01:25:05.505Z,7.40
2018-05-11T01:27:33.633Z,7.43
2018-05-11T01:30:01.765Z,7.90
2018-05-11T01:32:29.894Z,8.67
2018-05-11T01:34:58.036Z,8.10
2018-05-11T01:37:26.153Z,8.20
2018-05-11T01:39:55.143Z,8.57
2018-05-11T01:42:23.263Z,8.40
2018-05-11T01:44:51.415Z,8.17
2018-05-11T01:47:19.620Z,9.10
2018-05-11T01:49:47.801Z,8.57
2018-05-11T01:52:15.906Z,8.27
2018-05-11T01:54:44.049Z,8.80
2018-05-11T01:57:12.173Z,8.13
2018-05-11T01:59:40.411Z,9.33
2018-05-11T02:02:08.530Z,8.87
2018-05-11T02:04:36.681Z,8.70
2018-05-11T02:07:04.793Z,9.33
2018-05-11T02:09:32.933Z,8.57
2018-05-11T02:12:01.057Z,8.77
2018-05-11T02:14:29.187Z,9.30
2018-05-11T02:16:57.332Z,9.50
2018-05-11T02:19:25.456Z,9.47
2018-05-11T02:21:53.583Z,10.30
2018-05-11T02:24:21.711Z,8.83
2018-05-11T02:26:49.840Z,9.63
2018-05-11T02:29:17.970Z,9.23
2018-05-11T02:31:46.079Z,9.77
2018-05-11T02:34:14.202Z,9.67
2018-05-11T02:36:42.336Z,9.97
2018-05-11T02:39:10.584Z,10.43
2018-05-11T02:41:38.622Z,9.40
2018-05-11T02:44:06.770Z,10.67
2018-05-11T02:46:34.903Z,10.13
2018-05-11T02:49:03.030Z,10.17
2018-05-11T02:51:31.167Z,10.47
2018-05-11T02:53:59.313Z,10.07
2018-05-11T02:56:27.454Z,10.27
2018-05-11T02:58:55.553Z,9.83
2018-05-11T03:01:23.711Z,10.23
2018-05-11T03:03:51.829Z,9.80
2018-05-11T03:06:19.947Z,10.37
2018-05-11T03:08:48.076Z,10.47
2018-05-11T03:11:16.206Z,10.00
2018-05-11T03:13:44.356Z,10.30
2018-05-11T03:16:12.466Z,9.80
2018-05-11T03:18:40.630Z,9.17
2018-05-11T03:21:08.744Z,10.30
2018-05-11T03:23:36.883Z,10.77
2018-05-11T03:26:04.998Z,10.17
2018-05-11T03:28:33.125Z,10.80
2018-05-11T03:31:01.266Z,11.00
2018-05-11T03:33:29.394Z,10.40
2018-05-11T03:35:57.531Z,11.40
2018-05-11T03:38:25.849Z,10.70
2018-05-11T03:40:54.170Z,10.40
2018-05-11T03:43:22.297Z,11.23
2018-05-11T03:45:50.438Z,10.97
2018-05-11T03:48:18.590Z,10.77
2018-05-11T03:50:46.695Z,11.27
2018-05-11T03:53:14.841Z,10.97
2018-05-11T03:55:42.951Z,10.47
2018-05-11T03:58:11.085Z,10.80
2018-05-11T04:00:39.202Z,11.83
2018-05-11T04:03:19.155Z,12.07
2018-05-11T04:05:59.151Z,11.30
2018-05-11T04:08:48.126Z,12.20
2018-05-11T04:11:16.259Z,12.20
2018-05-11T04:13:44.404Z,11.07
2018-05-11T04:16:12.529Z,11.60
2018-05-11T04:18:40.674Z,11.20
2018-05-11T04:21:08.787Z,11.70
2018-05-11T04:23:36.925Z,10.90
2018-05-11T04:26:05.080Z,11.63
2018-05-11T04:28:33.208Z,11.43
2018-05-11T04:31:01.353Z,11.33
2018-05-11T04:33:29.512Z,11.13
2018-05-11T04:35:57.638Z,11.80
2018-05-11T04:38:25.768Z,11.33
2018-05-11T04:40:54.117Z,11.77
2018-05-11T04:43:22.241Z,11.30
2018-05-11T04:45:50.581Z,12.17
2018-05-11T04:48:18.715Z,11.93
2018-05-11T04:50:46.837Z,11.70
2018-05-11T04:53:14.970Z,11.70
2018-05-11T04:55:43.113Z,11.50
2018-05-11T04:58:11.247Z,11.90
2018-05-11T05:00:39.392Z,11.37
2018-05-11T05:03:07.596Z,12.17
2018-05-11T05:05:35.706Z,11.63
2018-05-11T05:08:03.834Z,12.60
2018-05-11T05:10:31.962Z,12.43
2018-05-11T05:13:00.098Z,12.10
2018-05-11T05:15:28.351Z,12.27
2018-05-11T05:17:56.511Z,12.33
2018-05-11T05:20:24.634Z,12.43
2018-05-11T05:22:52.766Z,12.50
2018-05-11T05:25:20.913Z,13.20
2018-05-11T05:27:49.047Z,12.43
2018-05-11T05:30:17.236Z,12.80
2018-05-11T05:32:45.391Z,12.67
2018-05-11T05:35:13.547Z,13.37
2018-05-11T05:37:41.697Z,12.33
2018-05-11T05:40:09.851Z,12.10
2018-05-11T05:42:37.985Z,13.00
2018-05-11T05:45:06.112Z,11.57
2018-05-11T05:47:34.252Z,11.90
2018-05-11T05:50:02.364Z,11.93
2018-05-11T05:52:30.505Z,11.60
2018-05-11T05:54:58.660Z,11.60
2018-05-11T05:57:26.781Z,11.67
2018-05-11T05:59:54.969Z,11.17
2018-05-11T06:02:23.350Z,12.50
2018-05-11T06:04:51.390Z,12.33
2018-05-11T06:07:19.517Z,13.27
2018-05-11T06:09:51.075Z,13.90
2018-05-11T06:12:19.216Z,13.57
2018-05-11T06:14:47.345Z,14.13
2018-05-11T06:17:15.477Z,15.00
2018-05-11T06:19:43.608Z,14.87
2018-05-11T06:22:11.731Z,16.27
2018-05-11T06:24:39.903Z,15.27
2018-05-11T06:27:08.003Z,16.80
2018-05-11T06:29:36.152Z,16.87
2018-05-11T06:32:04.291Z,15.70
2018-05-11T06:34:32.406Z,16.80
2018-05-11T06:37:00.521Z,15.37
2018-05-11T06:39:29.037Z,15.63
2018-05-11T06:41:57.187Z,16.00
2018-05-11T06:44:25.296Z,14.77
2018-05-11T06:46:53.669Z,14.47
2018-05-11T06:49:21.799Z,13.87
2018-05-11T06:51:49.926Z,13.57
2018-05-11T06:54:18.315Z,13.97
2018-05-11T06:56:46.429Z,14.00
2018-05-11T06:59:14.553Z,13.47
2018-05-11T07:01:42.829Z,13.20
2018-05-11T07:04:10.962Z,13.70
2018-05-11T07:06:39.102Z,16.43
2018-05-11T07:09:07.439Z,15.63
2018-05-11T07:11:35.576Z,16.40
2018-05-11T07:14:03.705Z,17.37
2018-05-11T07:16:31.935Z,17.33
2018-05-11T07:19:00.054Z,17.40
2018-05-11T07:21:28.189Z,18.00
2018-05-11T07:23:56.333Z,16.77
2018-05-11T07:26:24.457Z,16.30
2018-05-11T07:28:52.585Z,15.60
2018-05-11T07:31:20.723Z,15.70
2018-05-11T07:33:48.854Z,15.20
2018-05-11T07:36:17.251Z,15.33
2018-05-11T07:38:45.434Z,15.20
2018-05-11T07:41:16.868Z,14.27
2018-05-11T07:43:44.989Z,15.23
2018-05-11T07:46:13.135Z,15.00
2018-05-11T07:48:41.278Z,13.93
2018-05-11T07:51:09.417Z,15.57
2018-05-11T07:53:37.532Z,13.47
2018-05-11T07:56:05.684Z,15.67
2018-05-11T07:58:33.841Z,14.00
2018-05-11T08:01:01.959Z,14.37
2018-05-11T08:03:30.094Z,13.77
2018-05-11T08:05:59.238Z,14.20
2018-05-11T08:08:27.365Z,15.17
2018-05-11T08:10:55.485Z,13.60
2018-05-11T08:13:23.866Z,13.57
2018-05-11T08:15:52.001Z,13.93
2018-05-11T08:18:20.147Z,12.73
2018-05-11T08:20:48.295Z,14.17
2018-05-11T08:23:16.426Z,14.77
2018-05-11T08:25:44.545Z,12.47
2018-05-11T08:28:12.670Z,13.63
2018-05-11T08:30:40.799Z,15.17
2018-05-11T08:33:08.943Z,13.90
2018-05-11T08:35:37.069Z,14.10
2018-05-11T08:38:05.207Z,14.23
2018-05-11T08:40:33.348Z,14.20
2018-05-11T08:43:01.506Z,14.83
2018-05-11T08:45:29.622Z,14.53
2018-05-11T08:47:57.786Z,14.20
2018-05-11T08:50:25.918Z,14.10
2018-05-11T08:52:54.041Z,13.93
2018-05-11T08:55:22.169Z,14.50
2018-05-11T08:57:50.316Z,14.83
2018-05-11T09:00:18.460Z,14.00
2018-05-11T09:02:46.581Z,14.93
2018-05-11T09:05:14.741Z,14.90
2018-05-11T09:07:42.850Z,13.80
2018-05-11T09:10:10.966Z,14.53
2018-05-11T09:12:39.146Z,14.70
2018-05-11T09:15:07.283Z,13.90
2018-05-11T09:17:35.425Z,15.23
2018-05-11T09:20:03.764Z,14.87
2018-05-11T09:22:31.867Z,16.33
2018-05-11T09:24:59.980Z,15.33
2018-05-11T09:27:28.129Z,15.40
2018-05-11T09:29:56.247Z,16.40
2018-05-11T09:32:24.390Z,14.20
2018-05-11T09:34:52.524Z,14.23
2018-05-11T09:37:20.659Z,13.80
2018-05-11T09:39:48.862Z,13.70
2018-05-11T09:42:16.933Z,14.00
2018-05-11T09:44:45.075Z,14.17
2018-05-11T09:47:13.210Z,14.23
2018-05-11T09:49:41.386Z,13.73
2018-05-11T09:52:09.504Z,13.70
2018-05-11T09:54:37.649Z,14.70
2018-05-11T09:57:05.781Z,15.93
2018-05-11T09:59:33.905Z,15.60
2018-05-11T10:02:02.035Z,15.83
2018-05-11T10:04:30.151Z,16.93
2018-05-11T10:06:58.295Z,13.73
2018-05-11T10:09:26.413Z,16.33
2018-05-11T10:11:54.554Z,16.33
2018-05-11T10:14:22.688Z,15.43
2018-05-11T10:16:50.794Z,15.77
2018-05-11T10:19:18.937Z,14.93
2018-05-11T10:21:47.098Z,16.43
2018-05-11T10:24:15.199Z,15.40
2018-05-11T10:26:43.322Z,15.13
2018-05-11T10:29:11.562Z,12.53
2018-05-11T10:31:39.579Z,15.43
2018-05-11T10:34:07.711Z,13.93
2018-05-11T10:36:35.850Z,20.10
2018-05-11T10:39:03.969Z,18.87
2018-05-11T10:41:32.123Z,17.53
2018-05-11T10:44:00.337Z,18.37
2018-05-11T10:46:28.466Z,17.73
2018-05-11T10:48:56.624Z,15.20
2018-05-11T10:51:24.741Z,15.60
2018-05-11T10:53:52.869Z,14.00
2018-05-11T10:56:21.025Z,14.50
2018-05-11T10:58:49.156Z,15.47
2018-05-11T11:01:17.281Z,14.90
2018-05-11T11:03:45.417Z,14.50
2018-05-11T11:06:13.554Z,15.67
2018-05-11T11:08:41.695Z,12.97
2018-05-11T11:11:09.825Z,15.37
2018-05-11T11:13:37.968Z,13.07
2018-05-11T11:16:06.069Z,13.60
2018-05-11T11:18:34.221Z,14.40
2018-05-11T11:21:02.341Z,14.67
2018-05-11T11:23:30.450Z,12.50
2018-05-11T11:25:58.653Z,11.67
2018-05-11T11:28:26.713Z,13.70
2018-05-11T11:30:56.826Z,13.53
2018-05-11T11:33:24.966Z,10.40
2018-05-11T11:35:53.075Z,13.93
2018-05-11T11:38:21.191Z,12.63
2018-05-11T11:40:49.317Z,13.90
2018-05-11T11:43:17.445Z,14.10
2018-05-11T11:45:45.578Z,12.13
2018-05-11T11:48:13.734Z,13.23
2018-05-11T11:50:41.839Z,11.53
2018-05-11T11:53:13.578Z,13.40
2018-05-11T11:55:41.962Z,13.07
2018-05-11T11:58:10.070Z,13.53
2018-05-11T12:00:41.515Z,12.33
2018-05-11T12:03:09.688Z,14.37
2018-05-11T12:05:37.810Z,12.27
2018-05-11T12:08:05.946Z,11.47
2018-05-11T12:10:34.085Z,11.53
2018-05-11T12:13:02.229Z,9.90
2018-05-11T12:15:30.345Z,11.10
2018-05-11T12:17:58.497Z,11.30
2018-05-11T12:20:26.655Z,12.83
2018-05-11T12:22:54.757Z,12.03
2018-05-11T12:25:22.896Z,10.17
2018-05-11T12:27:51.035Z,9.33
2018-05-11T12:30:19.154Z,9.53
2018-05-11T12:32:47.272Z,8.60
2018-05-11T12:35:15.399Z,11.53
2018-05-11T12:37:43.535Z,9.00
2018-05-11T12:40:11.684Z,8.60
2018-05-11T12:42:39.778Z,7.67
2018-05-11T12:45:07.895Z,8.97
2018-05-11T12:47:36.042Z,9.40
2018-05-11T12:50:04.155Z,8.77
2018-05-11T12:52:35.444Z,8.60
2018-05-11T12:55:03.577Z,10.77
2018-05-11T12:57:31.719Z,9.17
2018-05-11T12:59:59.836Z,10.77
2018-05-11T13:02:27.976Z,10.40
2018-05-11T13:04:56.110Z,9.23
2018-05-11T13:07:24.251Z,9.17
2018-05-11T13:09:52.390Z,8.30
2018-05-11T13:12:20.549Z,8.73
2018-05-11T13:14:48.680Z,11.03
2018-05-11T13:17:16.796Z,10.17
2018-05-11T13:19:44.909Z,7.80
2018-05-11T13:22:13.025Z,8.13
2018-05-11T13:24:41.203Z,7.67
2018-05-11T13:27:09.394Z,7.00
2018-05-11T13:29:37.579Z,6.77
2018-05-11T13:32:05.755Z,7.83
2018-05-11T13:34:33.953Z,7.20
2018-05-11T13:37:02.534Z,8.33
2018-05-11T13:39:30.690Z,8.40
2018-05-11T13:41:58.797Z,7.43
2018-05-11T13:44:27.033Z,8.50
2018-05-11T13:46:55.177Z,7.33
2018-05-11T13:49:23.289Z,8.03
2018-05-11T13:51:51.424Z,6.90
2018-05-11T13:54:19.571Z,6.43
2018-05-11T13:56:47.688Z,6.87
2018-05-11T13:59:16.006Z,7.40
2018-05-11T14:01:44.208Z,7.20
2018-05-11T14:04:12.378Z,6.67
2018-05-11T14:06:40.497Z,5.70
2018-05-11T14:09:08.659Z,6.00
2018-05-11T14:11:36.772Z,6.67
2018-05-11T14:14:04.912Z,6.93
2018-05-11T14:16:33.037Z,5.97
2018-05-11T14:19:01.180Z,6.10
2018-05-11T14:21:29.323Z,6.67
2018-05-11T14:23:57.431Z,6.93
2018-05-11T14:26:25.571Z,6.70
2018-05-11T14:28:53.667Z,6.43
2018-05-11T14:31:21.958Z,5.50
2018-05-11T14:33:50.094Z,4.83
2018-05-11T14:36:18.215Z,5.70
2018-05-11T14:38:46.355Z,5.37
2018-05-11T14:41:14.537Z,4.53
2018-05-11T14:43:42.752Z,4.50
2018-05-11T14:46:10.907Z,4.97
2018-05-11T14:48:39.020Z,4.47
2018-05-11T14:51:07.129Z,4.37
2018-05-11T14:53:35.265Z,4.50
2018-05-11T14:56:03.385Z,4.03
2018-05-11T14:58:31.527Z,4.43
2018-05-11T15:00:59.651Z,5.00
2018-05-11T15:03:27.766Z,4.17
2018-05-11T15:05:55.868Z,4.83
2018-05-11T15:08:23.993Z,5.30
2018-05-11T15:10:52.109Z,4.20
2018-05-11T15:13:20.225Z,3.60
2018-05-11T15:15:48.350Z,3.33
2018-05-11T15:18:16.471Z,3.83
2018-05-11T15:20:44.614Z,4.60
2018-05-11T15:23:12.737Z,3.30
2018-05-11T15:25:40.881Z,3.30
2018-05-11T15:28:09.011Z,3.20
2018-05-11T15:30:37.552Z,3.60
2018-05-11T15:33:05.674Z,3.83
2018-05-11T15:35:33.794Z,3.40
2018-05-11T15:38:01.907Z,3.80
2018-05-11T15:40:30.157Z,3.20
2018-05-11T15:42:58.127Z,3.73
2018-05-11T15:45:26.261Z,2.80
2018-05-11T15:47:54.400Z,3.77
2018-05-11T15:50:22.526Z,3.80
2018-05-11T15:52:50.649Z,3.00
2018-05-11T15:55:18.765Z,3.30
2018-05-11T15:57:46.880Z,3.87
2018-05-11T16:00:18.845Z,3.10
2018-05-11T16:02:46.968Z,2.50
2018-05-11T16:05:15.154Z,4.10
2018-05-11T16:07:43.376Z,2.73
2018-05-11T16:10:11.474Z,2.50
2018-05-11T16:12:39.735Z,4.20
2018-05-11T16:15:07.718Z,3.50
2018-05-11T16:17:35.837Z,3.23
2018-05-11T16:20:03.983Z,3.10
2018-05-11T16:22:32.356Z,3.00
2018-05-11T16:25:00.451Z,3.20
2018-05-11T16:27:28.578Z,3.20
2018-05-11T16:29:56.727Z,2.80
2018-05-11T16:32:24.849Z,3.33
2018-05-11T16:34:52.965Z,3.00
2018-05-11T16:37:21.089Z,3.27
2018-05-11T16:39:49.228Z,2.80
2018-05-11T16:42:17.356Z,3.10
2018-05-11T16:44:45.465Z,3.10
2018-05-11T16:47:13.562Z,2.97
2018-05-11T16:49:41.748Z,2.73
2018-05-11T16:52:09.903Z,2.73
2018-05-11T16:54:37.996Z,2.87
2018-05-11T16:57:06.109Z,3.70
2018-05-11T16:59:34.245Z,3.43
2018-05-11T17:02:02.360Z,3.10
2018-05-11T17:04:30.469Z,3.30
2018-05-11T17:06:58.597Z,2.93
2018-05-11T17:09:26.727Z,3.30
2018-05-11T17:11:54.868Z,2.93
2018-05-11T17:14:22.975Z,3.00
2018-05-11T17:16:51.086Z,3.53
2018-05-11T17:19:19.339Z,2.77
2018-05-11T17:21:47.540Z,3.10
2018-05-11T17:24:15.657Z,3.27
2018-05-11T17:26:43.770Z,3.03
2018-05-11T17:29:11.904Z,2.90
2018-05-11T17:31:40.036Z,2.60
2018-05-11T17:34:08.160Z,2.50
2018-05-11T17:36:36.267Z,2.50
2018-05-11T17:39:04.408Z,3.00
2018-05-11T17:41:32.552Z,2.43
2018-05-11T17:44:00.612Z,2.60
2018-05-11T17:46:28.733Z,2.93
2018-05-11T17:48:56.868Z,3.20
2018-05-11T17:51:25.009Z,2.90
2018-05-11T17:53:53.125Z,2.60
2018-05-11T17:56:21.296Z,2.63
2018-05-11T17:58:49.456Z,2.87
2018-05-11T18:01:17.573Z,3.17
2018-05-11T18:03:45.676Z,3.17
2018-05-11T18:06:14.061Z,3.10
2018-05-11T18:08:42.167Z,3.07
2018-05-11T18:11:10.267Z,3.27
2018-05-11T18:13:39.306Z,3.50
2018-05-11T18:16:07.657Z,3.07
2018-05-11T18:18:35.799Z,3.10
2018-05-11T18:21:03.913Z,3.30
2018-05-11T18:23:32.019Z,3.00
2018-05-11T18:26:00.120Z,3.40
2018-05-11T18:28:28.267Z,3.50
2018-05-11T18:30:56.447Z,3.67
2018-05-11T18:33:24.516Z,3.33
2018-05-11T18:35:52.633Z,3.43
2018-05-11T18:38:20.739Z,3.47
2018-05-11T18:40:48.857Z,3.97
2018-05-11T18:43:16.982Z,3.30
2018-05-11T18:45:45.102Z,3.87
2018-05-11T18:48:13.221Z,3.63
2018-05-11T18:50:41.334Z,3.17
2018-05-11T18:53:09.648Z,3.80
2018-05-11T18:55:37.582Z,3.80
2018-05-11T18:58:05.869Z,3.37
2018-05-11T19:00:34.069Z,3.60
2018-05-11T19:03:02.267Z,3.30
2018-05-11T19:05:30.484Z,3.63
2018-05-11T19:07:58.593Z,3.00
2018-05-11T19:10:26.719Z,3.40
2018-05-11T19:12:54.856Z,3.70
2018-05-11T19:15:22.969Z,3.50
2018-05-11T19:17:51.112Z,4.20
2018-05-11T19:20:19.225Z,3.70
2018-05-11T19:22:47.357Z,4.00
2018-05-11T19:25:15.462Z,4.50
2018-05-11T19:27:43.596Z,4.10
2018-05-11T19:30:11.704Z,4.17
2018-05-11T19:32:39.811Z,4.27
2018-05-11T19:35:07.931Z,4.57
2018-05-11T19:37:36.045Z,4.07
2018-05-11T19:40:04.180Z,4.47
2018-05-11T19:42:32.314Z,4.37
2018-05-11T19:45:00.554Z,4.70
2018-05-11T19:47:28.753Z,5.07
2018-05-11T19:49:57.044Z,4.90
2018-05-11T19:52:25.189Z,4.80
2018-05-11T19:54:53.330Z,5.20
2018-05-11T19:57:21.479Z,4.77
2018-05-11T19:59:49.586Z,4.90
2018-05-11T20:02:17.674Z,4.90
2018-05-11T20:04:45.906Z,4.90
2018-05-11T20:07:14.095Z,4.90
2018-05-11T20:09:42.259Z,4.70
2018-05-11T20:12:10.599Z,4.70
2018-05-11T20:14:38.727Z,4.90
2018-05-11T20:17:06.846Z,5.00
2018-05-11T20:19:34.992Z,5.50
2018-05-11T20:22:03.097Z,4.87
2018-05-11T20:24:31.236Z,4.90
2018-05-11T20:26:59.375Z,4.63
2018-05-11T20:29:27.503Z,4.47
2018-05-11T20:31:55.612Z,4.10
2018-05-11T20:34:23.755Z,4.30
2018-05-11T20:36:51.877Z,4.80
2018-05-11T20:39:20.374Z,4.53
2018-05-11T20:41:48.518Z,4.83
2018-05-11T20:44:16.638Z,4.87
2018-05-11T20:46:44.738Z,4.33
2018-05-11T20:49:12.869Z,4.73
2018-05-11T20:51:41.001Z,4.70
2018-05-11T20:54:09.131Z,4.33
2018-05-11T20:56:37.242Z,4.43
2018-05-11T20:59:05.346Z,4.30
2018-05-11T21:01:33.480Z,4.30
2018-05-11T21:04:01.608Z,4.37
2018-05-11T21:06:29.744Z,4.47
2018-05-11T21:08:57.894Z,4.20
2018-05-11T21:11:26.055Z,3.97
2018-05-11T21:13:57.779Z,4.70
2018-05-11T21:16:25.905Z,4.57
2018-05-11T21:18:54.020Z,4.43
2018-05-11T21:21:22.163Z,4.50
2018-05-11T21:23:50.310Z,4.47
2018-05-11T21:26:18.436Z,4.33
2018-05-11T21:28:46.534Z,4.47
2018-05-11T21:31:14.664Z,4.77
2018-05-11T21:33:42.779Z,4.73
2018-05-11T21:36:10.916Z,4.13
2018-05-11T21:38:39.026Z,4.30
2018-05-11T21:41:07.720Z,4.87
2018-05-11T21:43:35.817Z,5.27
2018-05-11T21:46:03.941Z,5.40
2018-05-11T21:48:32.124Z,5.20
2018-05-11T21:51:00.336Z,4.43
2018-05-11T21:53:28.492Z,5.90
2018-05-11T21:55:56.859Z,4.90
2018-05-11T21:58:25.037Z,4.53
2018-05-11T22:00:53.190Z,4.60
2018-05-11T22:03:21.389Z,5.23
2018-05-11T22:05:49.682Z,4.63
2018-05-11T22:08:17.683Z,4.73
2018-05-11T22:10:46.025Z,5.23
2018-05-11T22:13:14.145Z,4.77
2018-05-11T22:15:42.258Z,4.90
2018-05-11T22:18:10.394Z,5.27
2018-05-11T22:20:38.491Z,4.97
2018-05-11T22:23:06.617Z,4.97
2018-05-11T22:25:34.730Z,4.90
2018-05-11T22:28:02.866Z,4.93
2018-05-11T22:30:30.981Z,4.83
2018-05-11T22:32:59.127Z,4.97
2018-05-11T22:35:27.262Z,4.73
2018-05-11T22:37:55.388Z,4.60
2018-05-11T22:40:23.534Z,5.13
2018-05-11T22:42:53.537Z,5.53
2018-05-11T22:45:21.650Z,5.33
2018-05-11T22:47:49.771Z,4.63
2018-05-11T22:50:17.888Z,5.53
2018-05-11T22:52:46.008Z,5.07
2018-05-11T22:55:14.133Z,5.27
2018-05-11T22:57:42.252Z,4.90
2018-05-11T23:00:10.368Z,5.10
2018-05-11T23:02:38.528Z,4.83
2018-05-11T23:05:06.644Z,5.43
2018-05-11T23:07:34.758Z,5.00
2018-05-11T23:10:02.879Z,4.73
2018-05-11T23:12:30.980Z,5.00
2018-05-11T23:14:59.111Z,5.30
2018-05-11T23:17:27.234Z,4.67
2018-05-11T23:19:55.355Z,5.30
2018-05-11T23:22:23.501Z,4.90
2018-05-11T23:24:51.615Z,5.70
2018-05-11T23:27:19.752Z,5.03
2018-05-11T23:29:47.972Z,5.47
2018-05-11T23:32:16.108Z,5.00
2018-05-11T23:34:44.215Z,5.77
2018-05-11T23:37:12.360Z,5.33
2018-05-11T23:39:40.506Z,5.60
2018-05-11T23:42:08.636Z,5.83
2018-05-11T23:44:36.733Z,5.33
2018-05-11T23:47:04.884Z,5.23
2018-05-11T23:49:32.975Z,4.80
2018-05-11T23:52:04.304Z,4.60
2018-05-11T23:54:32.453Z,4.87
2018-05-11T23:57:00.592Z,5.03
2018-05-11T23:59:28.709Z,6.03
